sensor_id;sensor_type;location;lat;lon;timestamp;P1;durP1;ratioP1;P2;durP2;ratioP2
70420;SDS011;57848;51.938;15.520;2022-09-01T00:02:06;7.10;;;1.60;;
70420;SDS011;57848;51.938;15.520;2022-09-01T00:04:36;6.60;;;1.58;;
70420;SDS011;57848;51.938;15.520;2022-09-01T00:07:03;5.82;;;1.60;;
70420;SDS011;57848;51.938;15.520;2022-09-01T00:09:30;8.57;;;1.80;;
70420;SDS011;57848;51.938;15.520;2022-09-01T00:11:56;8.02;;;1.90;;
70420;SDS011;57848;51.938;15.520;2022-09-01T00:14:23;5.43;;;1.43;;
70420;SDS011;57848;51.938;15.520;2022-09-01T00:16:51;6.43;;;1.37;;
70420;SDS011;57848;51.938;15.520;2022-09-01T00:19:18;5.50;;;1.48;;
70420;SDS011;57848;51.938;15.520;2022-09-01T00:21:43;8.18;;;2.17;;
70420;SDS011;57848;51.938;15.520;2022-09-01T00:24:10;6.35;;;1.80;;
70420;SDS011;57848;51.938;15.520;2022-09-01T00:26:37;5.67;;;1.47;;
70420;SDS011;57848;51.938;15.520;2022-09-01T00:29:03;7.65;;;1.65;;
70420;SDS011;57848;51.938;15.520;2022-09-01T00:31:28;5.47;;;1.42;;
70420;SDS011;57848;51.938;15.520;2022-09-01T00:33:54;9.43;;;1.40;;
70420;SDS011;57848;51.938;15.520;2022-09-01T00:36:20;7.43;;;1.90;;
70420;SDS011;57848;51.938;15.520;2022-09-01T00:38:45;6.70;;;1.43;;
70420;SDS011;57848;51.938;15.520;2022-09-01T00:41:12;6.57;;;1.70;;
70420;SDS011;57848;51.938;15.520;2022-09-01T00:46:06;7.53;;;1.50;;
70420;SDS011;57848;51.938;15.520;2022-09-01T00:48:34;6.47;;;1.50;;
70420;SDS011;57848;51.938;15.520;2022-09-01T00:51:00;6.47;;;1.40;;
70420;SDS011;57848;51.938;15.520;2022-09-01T00:53:26;6.63;;;1.80;;
70420;SDS011;57848;51.938;15.520;2022-09-01T00:55:52;6.20;;;1.80;;
70420;SDS011;57848;51.938;15.520;2022-09-01T00:58:17;7.73;;;1.80;;
70420;SDS011;57848;51.938;15.520;2022-09-01T01:00:43;9.40;;;1.87;;
70420;SDS011;57848;51.938;15.520;2022-09-01T01:03:11;8.57;;;1.80;;
70420;SDS011;57848;51.938;15.520;2022-09-01T01:05:42;6.10;;;1.80;;
70420;SDS011;57848;51.938;15.520;2022-09-01T01:08:18;8.18;;;1.70;;
70420;SDS011;57848;51.938;15.520;2022-09-01T01:10:51;6.67;;;1.67;;
70420;SDS011;57848;51.938;15.520;2022-09-01T01:13:16;6.15;;;1.70;;
70420;SDS011;57848;51.938;15.520;2022-09-01T01:15:42;5.43;;;1.20;;
70420;SDS011;57848;51.938;15.520;2022-09-01T01:18:10;5.55;;;1.88;;
70420;SDS011;57848;51.938;15.520;2022-09-01T01:20:36;7.03;;;1.53;;
70420;SDS011;57848;51.938;15.520;2022-09-01T01:25:58;6.65;;;1.80;;
70420;SDS011;57848;51.938;15.520;2022-09-01T01:28:28;6.88;;;1.63;;
70420;SDS011;57848;51.938;15.520;2022-09-01T01:31:06;7.18;;;1.45;;
70420;SDS011;57848;51.938;15.520;2022-09-01T01:33:43;6.63;;;1.63;;
70420;SDS011;57848;51.938;15.520;2022-09-01T01:36:19;7.68;;;1.48;;
70420;SDS011;57848;51.938;15.520;2022-09-01T01:38:51;6.95;;;1.70;;
70420;SDS011;57848;51.938;15.520;2022-09-01T01:41:18;8.20;;;1.85;;
70420;SDS011;57848;51.938;15.520;2022-09-01T01:43:44;7.25;;;1.90;;
70420;SDS011;57848;51.938;15.520;2022-09-01T01:46:13;6.73;;;1.60;;
70420;SDS011;57848;51.938;15.520;2022-09-01T01:48:42;5.88;;;1.30;;
70420;SDS011;57848;51.938;15.520;2022-09-01T01:51:08;6.72;;;1.80;;
70420;SDS011;57848;51.938;15.520;2022-09-01T01:53:34;6.80;;;2.13;;
70420;SDS011;57848;51.938;15.520;2022-09-01T01:56:00;5.85;;;1.63;;
70420;SDS011;57848;51.938;15.520;2022-09-01T01:58:30;7.10;;;2.00;;
70420;SDS011;57848;51.938;15.520;2022-09-01T02:00:57;6.32;;;1.77;;
70420;SDS011;57848;51.938;15.520;2022-09-01T02:03:24;7.63;;;1.90;;
70420;SDS011;57848;51.938;15.520;2022-09-01T02:05:53;6.07;;;1.48;;
70420;SDS011;57848;51.938;15.520;2022-09-01T02:08:20;5.35;;;1.70;;
70420;SDS011;57848;51.938;15.520;2022-09-01T02:10:48;5.47;;;1.73;;
70420;SDS011;57848;51.938;15.520;2022-09-01T02:13:17;7.07;;;1.73;;
70420;SDS011;57848;51.938;15.520;2022-09-01T02:15:47;6.40;;;1.90;;
70420;SDS011;57848;51.938;15.520;2022-09-01T02:18:16;6.63;;;1.70;;
70420;SDS011;57848;51.938;15.520;2022-09-01T02:20:47;7.15;;;2.08;;
70420;SDS011;57848;51.938;15.520;2022-09-01T02:23:14;5.90;;;1.80;;
70420;SDS011;57848;51.938;15.520;2022-09-01T02:25:43;7.20;;;1.90;;
70420;SDS011;57848;51.938;15.520;2022-09-01T02:28:11;7.22;;;1.88;;
70420;SDS011;57848;51.938;15.520;2022-09-01T02:30:43;6.68;;;1.70;;
70420;SDS011;57848;51.938;15.520;2022-09-01T02:33:16;5.68;;;1.40;;
70420;SDS011;57848;51.938;15.520;2022-09-01T02:35:46;7.03;;;1.70;;
70420;SDS011;57848;51.938;15.520;2022-09-01T02:38:16;6.80;;;1.77;;
70420;SDS011;57848;51.938;15.520;2022-09-01T02:40:43;6.18;;;2.13;;
70420;SDS011;57848;51.938;15.520;2022-09-01T02:43:11;6.28;;;1.77;;
70420;SDS011;57848;51.938;15.520;2022-09-01T02:45:38;7.50;;;1.98;;
70420;SDS011;57848;51.938;15.520;2022-09-01T02:48:04;7.43;;;1.87;;
70420;SDS011;57848;51.938;15.520;2022-09-01T02:50:37;6.50;;;1.83;;
70420;SDS011;57848;51.938;15.520;2022-09-01T02:53:06;8.73;;;1.63;;
70420;SDS011;57848;51.938;15.520;2022-09-01T02:55:35;5.75;;;1.55;;
70420;SDS011;57848;51.938;15.520;2022-09-01T02:58:01;6.75;;;1.80;;
70420;SDS011;57848;51.938;15.520;2022-09-01T03:00:27;6.83;;;1.73;;
70420;SDS011;57848;51.938;15.520;2022-09-01T03:03:00;8.00;;;2.10;;
70420;SDS011;57848;51.938;15.520;2022-09-01T03:05:27;7.18;;;1.75;;
70420;SDS011;57848;51.938;15.520;2022-09-01T03:07:58;5.07;;;1.60;;
70420;SDS011;57848;51.938;15.520;2022-09-01T03:10:27;7.25;;;2.08;;
70420;SDS011;57848;51.938;15.520;2022-09-01T03:13:04;5.43;;;1.73;;
70420;SDS011;57848;51.938;15.520;2022-09-01T03:15:32;7.97;;;2.40;;
70420;SDS011;57848;51.938;15.520;2022-09-01T03:18:00;9.38;;;2.00;;
70420;SDS011;57848;51.938;15.520;2022-09-01T03:20:27;7.22;;;2.03;;
70420;SDS011;57848;51.938;15.520;2022-09-01T03:22:54;7.80;;;1.90;;
70420;SDS011;57848;51.938;15.520;2022-09-01T03:25:22;7.07;;;2.10;;
70420;SDS011;57848;51.938;15.520;2022-09-01T03:27:50;7.70;;;1.92;;
70420;SDS011;57848;51.938;15.520;2022-09-01T03:30:17;6.35;;;2.13;;
70420;SDS011;57848;51.938;15.520;2022-09-01T03:32:44;5.70;;;1.88;;
70420;SDS011;57848;51.938;15.520;2022-09-01T03:35:10;9.32;;;2.30;;
70420;SDS011;57848;51.938;15.520;2022-09-01T03:37:37;5.93;;;1.90;;
70420;SDS011;57848;51.938;15.520;2022-09-01T03:40:04;6.03;;;1.80;;
70420;SDS011;57848;51.938;15.520;2022-09-01T03:42:33;6.85;;;1.83;;
70420;SDS011;57848;51.938;15.520;2022-09-01T03:45:00;7.20;;;2.25;;
70420;SDS011;57848;51.938;15.520;2022-09-01T03:47:34;5.40;;;1.90;;
70420;SDS011;57848;51.938;15.520;2022-09-01T03:50:04;5.73;;;1.80;;
70420;SDS011;57848;51.938;15.520;2022-09-01T03:52:48;6.85;;;2.30;;
70420;SDS011;57848;51.938;15.520;2022-09-01T03:55:17;6.00;;;1.98;;
70420;SDS011;57848;51.938;15.520;2022-09-01T03:57:49;7.18;;;2.40;;
70420;SDS011;57848;51.938;15.520;2022-09-01T04:00:15;8.50;;;2.05;;
70420;SDS011;57848;51.938;15.520;2022-09-01T04:02:46;9.00;;;1.90;;
70420;SDS011;57848;51.938;15.520;2022-09-01T04:05:16;6.10;;;1.92;;
70420;SDS011;57848;51.938;15.520;2022-09-01T04:07:45;6.82;;;2.15;;
70420;SDS011;57848;51.938;15.520;2022-09-01T04:10:12;7.65;;;2.25;;
70420;SDS011;57848;51.938;15.520;2022-09-01T04:12:39;10.52;;;2.13;;
70420;SDS011;57848;51.938;15.520;2022-09-01T04:15:05;6.00;;;2.10;;
70420;SDS011;57848;51.938;15.520;2022-09-01T04:17:34;8.40;;;2.00;;
70420;SDS011;57848;51.938;15.520;2022-09-01T04:20:19;6.57;;;2.22;;
70420;SDS011;57848;51.938;15.520;2022-09-01T04:22:46;7.43;;;2.30;;
70420;SDS011;57848;51.938;15.520;2022-09-01T04:25:14;7.67;;;2.63;;
70420;SDS011;57848;51.938;15.520;2022-09-01T04:27:40;6.30;;;2.10;;
70420;SDS011;57848;51.938;15.520;2022-09-01T04:30:10;8.18;;;2.13;;
70420;SDS011;57848;51.938;15.520;2022-09-01T04:32:37;6.57;;;2.30;;
70420;SDS011;57848;51.938;15.520;2022-09-01T04:35:03;6.47;;;2.30;;
70420;SDS011;57848;51.938;15.520;2022-09-01T04:37:29;7.20;;;2.40;;
70420;SDS011;57848;51.938;15.520;2022-09-01T04:39:57;7.20;;;2.15;;
70420;SDS011;57848;51.938;15.520;2022-09-01T04:42:25;7.00;;;2.25;;
70420;SDS011;57848;51.938;15.520;2022-09-01T04:44:54;7.95;;;2.70;;
70420;SDS011;57848;51.938;15.520;2022-09-01T04:47:21;8.30;;;2.40;;
70420;SDS011;57848;51.938;15.520;2022-09-01T04:49:57;6.65;;;2.38;;
70420;SDS011;57848;51.938;15.520;2022-09-01T04:52:26;7.20;;;2.42;;
70420;SDS011;57848;51.938;15.520;2022-09-01T04:54:51;7.35;;;2.33;;
70420;SDS011;57848;51.938;15.520;2022-09-01T04:57:19;7.20;;;2.30;;
70420;SDS011;57848;51.938;15.520;2022-09-01T04:59:45;8.90;;;2.80;;
70420;SDS011;57848;51.938;15.520;2022-09-01T05:02:11;7.05;;;2.50;;
70420;SDS011;57848;51.938;15.520;2022-09-01T05:04:36;8.53;;;2.30;;
70420;SDS011;57848;51.938;15.520;2022-09-01T05:07:04;9.45;;;2.83;;
70420;SDS011;57848;51.938;15.520;2022-09-01T05:09:36;7.22;;;2.38;;
70420;SDS011;57848;51.938;15.520;2022-09-01T05:12:20;7.33;;;2.07;;
70420;SDS011;57848;51.938;15.520;2022-09-01T05:14:47;10.10;;;2.10;;
70420;SDS011;57848;51.938;15.520;2022-09-01T05:17:16;6.63;;;2.40;;
70420;SDS011;57848;51.938;15.520;2022-09-01T05:19:43;7.68;;;2.35;;
70420;SDS011;57848;51.938;15.520;2022-09-01T05:22:12;7.10;;;2.17;;
70420;SDS011;57848;51.938;15.520;2022-09-01T05:24:41;8.50;;;1.93;;
70420;SDS011;57848;51.938;15.520;2022-09-01T05:27:08;6.25;;;2.17;;
70420;SDS011;57848;51.938;15.520;2022-09-01T05:29:37;6.90;;;2.25;;
70420;SDS011;57848;51.938;15.520;2022-09-01T05:32:04;8.32;;;2.00;;
70420;SDS011;57848;51.938;15.520;2022-09-01T05:34:35;9.32;;;2.95;;
70420;SDS011;57848;51.938;15.520;2022-09-01T05:37:03;5.60;;;1.90;;
70420;SDS011;57848;51.938;15.520;2022-09-01T05:39:30;7.47;;;2.03;;
70420;SDS011;57848;51.938;15.520;2022-09-01T05:41:57;6.03;;;2.13;;
70420;SDS011;57848;51.938;15.520;2022-09-01T05:44:23;9.25;;;2.10;;
70420;SDS011;57848;51.938;15.520;2022-09-01T05:46:51;7.95;;;2.40;;
70420;SDS011;57848;51.938;15.520;2022-09-01T05:49:18;8.17;;;2.20;;
70420;SDS011;57848;51.938;15.520;2022-09-01T05:51:46;7.15;;;2.05;;
70420;SDS011;57848;51.938;15.520;2022-09-01T05:54:21;10.63;;;2.47;;
70420;SDS011;57848;51.938;15.520;2022-09-01T05:56:49;7.70;;;2.28;;
70420;SDS011;57848;51.938;15.520;2022-09-01T05:59:20;7.35;;;2.00;;
70420;SDS011;57848;51.938;15.520;2022-09-01T06:01:48;7.70;;;2.40;;
70420;SDS011;57848;51.938;15.520;2022-09-01T06:04:14;8.10;;;2.28;;
70420;SDS011;57848;51.938;15.520;2022-09-01T06:06:41;7.55;;;2.15;;
70420;SDS011;57848;51.938;15.520;2022-09-01T06:09:12;6.55;;;1.83;;
70420;SDS011;57848;51.938;15.520;2022-09-01T06:11:43;7.07;;;1.80;;
70420;SDS011;57848;51.938;15.520;2022-09-01T06:14:12;6.97;;;1.90;;
70420;SDS011;57848;51.938;15.520;2022-09-01T06:16:40;7.63;;;1.77;;
70420;SDS011;57848;51.938;15.520;2022-09-01T06:19:06;6.30;;;2.08;;
70420;SDS011;57848;51.938;15.520;2022-09-01T06:21:34;9.90;;;1.83;;
70420;SDS011;57848;51.938;15.520;2022-09-01T06:24:00;7.65;;;2.15;;
70420;SDS011;57848;51.938;15.520;2022-09-01T06:26:27;10.27;;;1.97;;
70420;SDS011;57848;51.938;15.520;2022-09-01T06:28:57;6.88;;;1.80;;
70420;SDS011;57848;51.938;15.520;2022-09-01T06:31:28;6.88;;;1.70;;
70420;SDS011;57848;51.938;15.520;2022-09-01T06:34:01;8.17;;;2.43;;
70420;SDS011;57848;51.938;15.520;2022-09-01T06:36:28;5.85;;;2.10;;
70420;SDS011;57848;51.938;15.520;2022-09-01T06:38:56;6.85;;;1.55;;
70420;SDS011;57848;51.938;15.520;2022-09-01T06:41:24;5.65;;;1.67;;
70420;SDS011;57848;51.938;15.520;2022-09-01T06:43:51;5.40;;;1.77;;
70420;SDS011;57848;51.938;15.520;2022-09-01T06:46:18;7.13;;;1.67;;
70420;SDS011;57848;51.938;15.520;2022-09-01T06:48:44;6.40;;;1.40;;
70420;SDS011;57848;51.938;15.520;2022-09-01T06:51:12;5.03;;;1.30;;
70420;SDS011;57848;51.938;15.520;2022-09-01T06:53:43;5.80;;;1.20;;
70420;SDS011;57848;51.938;15.520;2022-09-01T06:56:13;4.82;;;1.45;;
70420;SDS011;57848;51.938;15.520;2022-09-01T06:58:40;5.23;;;1.33;;
70420;SDS011;57848;51.938;15.520;2022-09-01T07:01:13;5.38;;;1.70;;
70420;SDS011;57848;51.938;15.520;2022-09-01T07:03:44;6.72;;;1.50;;
70420;SDS011;57848;51.938;15.520;2022-09-01T07:06:16;4.82;;;1.13;;
70420;SDS011;57848;51.938;15.520;2022-09-01T07:09:02;5.75;;;1.45;;
70420;SDS011;57848;51.938;15.520;2022-09-01T07:11:30;5.80;;;1.40;;
70420;SDS011;57848;51.938;15.520;2022-09-01T07:13:59;4.82;;;1.17;;
70420;SDS011;57848;51.938;15.520;2022-09-01T07:16:31;5.10;;;1.20;;
70420;SDS011;57848;51.938;15.520;2022-09-01T07:19:01;5.90;;;1.40;;
70420;SDS011;57848;51.938;15.520;2022-09-01T07:21:29;6.53;;;1.50;;
70420;SDS011;57848;51.938;15.520;2022-09-01T07:23:57;6.40;;;1.20;;
70420;SDS011;57848;51.938;15.520;2022-09-01T07:26:25;6.65;;;1.77;;
70420;SDS011;57848;51.938;15.520;2022-09-01T07:28:51;6.72;;;1.20;;
70420;SDS011;57848;51.938;15.520;2022-09-01T07:31:17;6.07;;;1.80;;
70420;SDS011;57848;51.938;15.520;2022-09-01T07:33:49;5.60;;;1.33;;
70420;SDS011;57848;51.938;15.520;2022-09-01T07:36:16;8.05;;;1.60;;
70420;SDS011;57848;51.938;15.520;2022-09-01T07:38:43;5.65;;;1.23;;
70420;SDS011;57848;51.938;15.520;2022-09-01T07:41:10;5.27;;;1.33;;
70420;SDS011;57848;51.938;15.520;2022-09-01T07:43:57;5.43;;;1.38;;
70420;SDS011;57848;51.938;15.520;2022-09-01T07:47:02;6.57;;;2.08;;
70420;SDS011;57848;51.938;15.520;2022-09-01T07:49:32;5.88;;;1.70;;
70420;SDS011;57848;51.938;15.520;2022-09-01T07:51:58;5.30;;;1.60;;
70420;SDS011;57848;51.938;15.520;2022-09-01T07:54:28;6.40;;;1.52;;
70420;SDS011;57848;51.938;15.520;2022-09-01T07:56:55;4.80;;;1.20;;
70420;SDS011;57848;51.938;15.520;2022-09-01T07:59:22;6.72;;;1.30;;
70420;SDS011;57848;51.938;15.520;2022-09-01T08:02:02;5.80;;;1.33;;
70420;SDS011;57848;51.938;15.520;2022-09-01T08:04:30;4.07;;;1.05;;
70420;SDS011;57848;51.938;15.520;2022-09-01T08:06:58;5.00;;;1.02;;
70420;SDS011;57848;51.938;15.520;2022-09-01T08:09:24;6.18;;;1.35;;
70420;SDS011;57848;51.938;15.520;2022-09-01T08:11:49;4.63;;;1.03;;
70420;SDS011;57848;51.938;15.520;2022-09-01T08:14:16;7.00;;;1.08;;
70420;SDS011;57848;51.938;15.520;2022-09-01T08:16:41;4.60;;;1.00;;
70420;SDS011;57848;51.938;15.520;2022-09-01T08:19:08;4.60;;;1.05;;
70420;SDS011;57848;51.938;15.520;2022-09-01T08:21:56;3.92;;;0.80;;
70420;SDS011;57848;51.938;15.520;2022-09-01T08:24:26;5.17;;;0.97;;
70420;SDS011;57848;51.938;15.520;2022-09-01T08:26:51;4.20;;;1.10;;
70420;SDS011;57848;51.938;15.520;2022-09-01T08:29:17;5.80;;;1.20;;
70420;SDS011;57848;51.938;15.520;2022-09-01T08:31:42;4.47;;;0.90;;
70420;SDS011;57848;51.938;15.520;2022-09-01T08:34:10;4.38;;;0.90;;
70420;SDS011;57848;51.938;15.520;2022-09-01T08:36:36;4.50;;;1.00;;
70420;SDS011;57848;51.938;15.520;2022-09-01T08:39:02;5.13;;;1.13;;
70420;SDS011;57848;51.938;15.520;2022-09-01T08:41:40;6.25;;;0.93;;
70420;SDS011;57848;51.938;15.520;2022-09-01T08:46:53;5.50;;;1.40;;
70420;SDS011;57848;51.938;15.520;2022-09-01T08:49:23;3.78;;;0.90;;
70420;SDS011;57848;51.938;15.520;2022-09-01T08:52:16;4.63;;;1.10;;
70420;SDS011;57848;51.938;15.520;2022-09-01T08:54:49;3.42;;;0.90;;
70420;SDS011;57848;51.938;15.520;2022-09-01T08:58:03;4.95;;;1.15;;
70420;SDS011;57848;51.938;15.520;2022-09-01T09:00:20;4.07;;;0.90;;
70420;SDS011;57848;51.938;15.520;2022-09-01T09:03:03;5.85;;;1.15;;
70420;SDS011;57848;51.938;15.520;2022-09-01T09:05:55;4.45;;;1.00;;
70420;SDS011;57848;51.938;15.520;2022-09-01T09:08:57;5.20;;;0.93;;
70420;SDS011;57848;51.938;15.520;2022-09-01T09:16:36;5.22;;;1.00;;
70420;SDS011;57848;51.938;15.520;2022-09-01T09:21:46;8.70;;;1.20;;
70420;SDS011;57848;51.938;15.520;2022-09-01T09:24:16;4.38;;;1.30;;
70420;SDS011;57848;51.938;15.520;2022-09-01T09:26:49;5.90;;;1.00;;
70420;SDS011;57848;51.938;15.520;2022-09-01T09:29:15;5.15;;;0.93;;
70420;SDS011;57848;51.938;15.520;2022-09-01T09:31:42;6.45;;;1.20;;
70420;SDS011;57848;51.938;15.520;2022-09-01T09:36:59;3.88;;;1.00;;
70420;SDS011;57848;51.938;15.520;2022-09-01T09:40:00;3.90;;;0.80;;
70420;SDS011;57848;51.938;15.520;2022-09-01T09:45:22;3.23;;;0.80;;
70420;SDS011;57848;51.938;15.520;2022-09-01T09:48:08;6.72;;;1.00;;
70420;SDS011;57848;51.938;15.520;2022-09-01T09:50:50;4.20;;;0.90;;
70420;SDS011;57848;51.938;15.520;2022-09-01T09:58:38;5.35;;;1.08;;
70420;SDS011;57848;51.938;15.520;2022-09-01T10:01:11;4.90;;;1.05;;
70420;SDS011;57848;51.938;15.520;2022-09-01T10:09:00;4.38;;;1.10;;
70420;SDS011;57848;51.938;15.520;2022-09-01T10:11:29;4.93;;;1.40;;
70420;SDS011;57848;51.938;15.520;2022-09-01T10:14:10;4.80;;;1.30;;
70420;SDS011;57848;51.938;15.520;2022-09-01T10:16:44;4.57;;;1.10;;
70420;SDS011;57848;51.938;15.520;2022-09-01T10:19:14;5.23;;;1.30;;
70420;SDS011;57848;51.938;15.520;2022-09-01T10:21:40;4.82;;;0.90;;
70420;SDS011;57848;51.938;15.520;2022-09-01T10:24:31;4.43;;;1.03;;
70420;SDS011;57848;51.938;15.520;2022-09-01T10:27:00;5.90;;;1.00;;
70420;SDS011;57848;51.938;15.520;2022-09-01T10:29:30;5.93;;;1.10;;
70420;SDS011;57848;51.938;15.520;2022-09-01T10:31:58;4.93;;;0.93;;
70420;SDS011;57848;51.938;15.520;2022-09-01T10:34:24;5.07;;;1.10;;
70420;SDS011;57848;51.938;15.520;2022-09-01T10:36:54;6.37;;;1.00;;
70420;SDS011;57848;51.938;15.520;2022-09-01T10:39:19;6.00;;;1.10;;
70420;SDS011;57848;51.938;15.520;2022-09-01T10:41:52;7.13;;;1.27;;
70420;SDS011;57848;51.938;15.520;2022-09-01T10:44:21;7.35;;;1.00;;
70420;SDS011;57848;51.938;15.520;2022-09-01T10:46:49;5.45;;;0.95;;
70420;SDS011;57848;51.938;15.520;2022-09-01T10:51:46;4.25;;;0.93;;
70420;SDS011;57848;51.938;15.520;2022-09-01T10:54:48;6.65;;;0.80;;
70420;SDS011;57848;51.938;15.520;2022-09-01T11:00:42;4.85;;;1.05;;
70420;SDS011;57848;51.938;15.520;2022-09-01T11:08:21;4.68;;;1.27;;
70420;SDS011;57848;51.938;15.520;2022-09-01T11:10:54;3.92;;;1.05;;
70420;SDS011;57848;51.938;15.520;2022-09-01T11:13:27;7.75;;;1.35;;
70420;SDS011;57848;51.938;15.520;2022-09-01T11:16:21;5.43;;;1.20;;
70420;SDS011;57848;51.938;15.520;2022-09-01T11:18:48;6.18;;;1.15;;
70420;SDS011;57848;51.938;15.520;2022-09-01T11:21:15;4.88;;;0.90;;
70420;SDS011;57848;51.938;15.520;2022-09-01T11:23:47;5.10;;;1.00;;
70420;SDS011;57848;51.938;15.520;2022-09-01T11:32:18;6.32;;;1.50;;
70420;SDS011;57848;51.938;15.520;2022-09-01T11:34:45;4.88;;;1.10;;
70420;SDS011;57848;51.938;15.520;2022-09-01T11:37:16;6.30;;;1.20;;
70420;SDS011;57848;51.938;15.520;2022-09-01T11:39:47;4.97;;;1.00;;
70420;SDS011;57848;51.938;15.520;2022-09-01T11:42:18;4.55;;;1.10;;
70420;SDS011;57848;51.938;15.520;2022-09-01T11:45:13;4.03;;;1.10;;
70420;SDS011;57848;51.938;15.520;2022-09-01T11:47:43;4.13;;;1.13;;
70420;SDS011;57848;51.938;15.520;2022-09-01T11:50:26;6.87;;;1.10;;
70420;SDS011;57848;51.938;15.520;2022-09-01T11:52:58;3.65;;;0.90;;
70420;SDS011;57848;51.938;15.520;2022-09-01T11:55:32;6.07;;;2.45;;
70420;SDS011;57848;51.938;15.520;2022-09-01T11:58:00;7.75;;;4.22;;
70420;SDS011;57848;51.938;15.520;2022-09-01T12:00:28;6.60;;;2.42;;
70420;SDS011;57848;51.938;15.520;2022-09-01T12:03:02;5.83;;;1.53;;
70420;SDS011;57848;51.938;15.520;2022-09-01T12:05:36;3.33;;;0.90;;
70420;SDS011;57848;51.938;15.520;2022-09-01T12:08:10;3.95;;;1.10;;
70420;SDS011;57848;51.938;15.520;2022-09-01T12:10:41;4.82;;;0.98;;
70420;SDS011;57848;51.938;15.520;2022-09-01T12:13:19;4.55;;;1.10;;
70420;SDS011;57848;51.938;15.520;2022-09-01T12:15:54;5.73;;;1.23;;
70420;SDS011;57848;51.938;15.520;2022-09-01T12:18:22;4.07;;;1.10;;
70420;SDS011;57848;51.938;15.520;2022-09-01T12:20:52;4.63;;;1.20;;
70420;SDS011;57848;51.938;15.520;2022-09-01T12:23:28;4.30;;;1.10;;
70420;SDS011;57848;51.938;15.520;2022-09-01T12:25:58;5.72;;;1.20;;
70420;SDS011;57848;51.938;15.520;2022-09-01T12:28:27;4.07;;;0.93;;
70420;SDS011;57848;51.938;15.520;2022-09-01T12:30:55;4.35;;;1.10;;
70420;SDS011;57848;51.938;15.520;2022-09-01T12:33:22;3.67;;;0.88;;
70420;SDS011;57848;51.938;15.520;2022-09-01T12:35:47;5.03;;;1.10;;
70420;SDS011;57848;51.938;15.520;2022-09-01T12:40:48;3.85;;;1.00;;
70420;SDS011;57848;51.938;15.520;2022-09-01T12:43:32;4.40;;;1.10;;
70420;SDS011;57848;51.938;15.520;2022-09-01T12:45:59;6.30;;;1.15;;
70420;SDS011;57848;51.938;15.520;2022-09-01T12:50:54;4.25;;;0.90;;
70420;SDS011;57848;51.938;15.520;2022-09-01T12:53:22;3.93;;;0.70;;
70420;SDS011;57848;51.938;15.520;2022-09-01T12:55:53;4.15;;;0.80;;
70420;SDS011;57848;51.938;15.520;2022-09-01T12:58:24;3.72;;;0.80;;
70420;SDS011;57848;51.938;15.520;2022-09-01T13:03:23;5.43;;;1.50;;
70420;SDS011;57848;51.938;15.520;2022-09-01T13:05:54;4.43;;;1.10;;
70420;SDS011;57848;51.938;15.520;2022-09-01T13:08:25;5.78;;;1.20;;
70420;SDS011;57848;51.938;15.520;2022-09-01T13:10:56;4.30;;;1.10;;
70420;SDS011;57848;51.938;15.520;2022-09-01T13:13:25;4.43;;;0.90;;
70420;SDS011;57848;51.938;15.520;2022-09-01T13:15:53;3.97;;;0.75;;
70420;SDS011;57848;51.938;15.520;2022-09-01T13:18:21;3.13;;;0.70;;
70420;SDS011;57848;51.938;15.520;2022-09-01T13:20:48;3.60;;;0.73;;
70420;SDS011;57848;51.938;15.520;2022-09-01T13:23:14;4.38;;;0.93;;
70420;SDS011;57848;51.938;15.520;2022-09-01T13:25:40;3.03;;;0.68;;
70420;SDS011;57848;51.938;15.520;2022-09-01T13:28:08;5.90;;;0.80;;
70420;SDS011;57848;51.938;15.520;2022-09-01T13:30:35;4.60;;;0.70;;
70420;SDS011;57848;51.938;15.520;2022-09-01T13:33:01;2.78;;;0.70;;
70420;SDS011;57848;51.938;15.520;2022-09-01T13:35:26;2.77;;;0.70;;
70420;SDS011;57848;51.938;15.520;2022-09-01T13:37:51;4.00;;;0.90;;
70420;SDS011;57848;51.938;15.520;2022-09-01T13:40:17;4.32;;;0.70;;
70420;SDS011;57848;51.938;15.520;2022-09-01T13:42:45;4.90;;;0.90;;
70420;SDS011;57848;51.938;15.520;2022-09-01T13:45:12;3.05;;;0.70;;
70420;SDS011;57848;51.938;15.520;2022-09-01T13:47:41;6.10;;;0.90;;
70420;SDS011;57848;51.938;15.520;2022-09-01T13:50:08;5.68;;;0.90;;
70420;SDS011;57848;51.938;15.520;2022-09-01T13:52:35;4.47;;;0.82;;
70420;SDS011;57848;51.938;15.520;2022-09-01T13:55:03;4.63;;;0.90;;
70420;SDS011;57848;51.938;15.520;2022-09-01T13:57:29;5.00;;;0.77;;
70420;SDS011;57848;51.938;15.520;2022-09-01T13:59:54;5.10;;;0.90;;
70420;SDS011;57848;51.938;15.520;2022-09-01T14:02:20;6.35;;;0.88;;
70420;SDS011;57848;51.938;15.520;2022-09-01T14:04:45;4.80;;;0.83;;
70420;SDS011;57848;51.938;15.520;2022-09-01T14:07:10;3.47;;;0.77;;
70420;SDS011;57848;51.938;15.520;2022-09-01T14:09:36;4.10;;;0.83;;
70420;SDS011;57848;51.938;15.520;2022-09-01T14:12:01;5.00;;;0.70;;
70420;SDS011;57848;51.938;15.520;2022-09-01T14:14:27;3.80;;;0.70;;
70420;SDS011;57848;51.938;15.520;2022-09-01T14:16:52;3.70;;;0.80;;
70420;SDS011;57848;51.938;15.520;2022-09-01T14:19:18;4.33;;;0.90;;
70420;SDS011;57848;51.938;15.520;2022-09-01T14:21:43;3.03;;;0.70;;
70420;SDS011;57848;51.938;15.520;2022-09-01T14:24:09;3.53;;;0.80;;
70420;SDS011;57848;51.938;15.520;2022-09-01T14:26:34;3.93;;;0.83;;
70420;SDS011;57848;51.938;15.520;2022-09-01T14:28:59;5.50;;;0.80;;
70420;SDS011;57848;51.938;15.520;2022-09-01T14:31:26;2.45;;;0.52;;
70420;SDS011;57848;51.938;15.520;2022-09-01T14:33:53;2.88;;;0.70;;
70420;SDS011;57848;51.938;15.520;2022-09-01T14:36:21;4.60;;;0.80;;
70420;SDS011;57848;51.938;15.520;2022-09-01T14:38:48;3.70;;;0.85;;
70420;SDS011;57848;51.938;15.520;2022-09-01T14:41:15;4.53;;;0.80;;
70420;SDS011;57848;51.938;15.520;2022-09-01T14:43:44;3.78;;;0.80;;
70420;SDS011;57848;51.938;15.520;2022-09-01T14:46:10;4.10;;;0.70;;
70420;SDS011;57848;51.938;15.520;2022-09-01T14:48:36;3.03;;;0.67;;
70420;SDS011;57848;51.938;15.520;2022-09-01T14:51:03;2.83;;;0.70;;
70420;SDS011;57848;51.938;15.520;2022-09-01T14:53:29;5.43;;;0.90;;
70420;SDS011;57848;51.938;15.520;2022-09-01T14:55:56;4.30;;;0.60;;
70420;SDS011;57848;51.938;15.520;2022-09-01T14:58:22;2.45;;;0.60;;
70420;SDS011;57848;51.938;15.520;2022-09-01T15:00:49;3.83;;;0.68;;
70420;SDS011;57848;51.938;15.520;2022-09-01T15:03:14;5.60;;;0.77;;
70420;SDS011;57848;51.938;15.520;2022-09-01T15:05:40;5.50;;;0.80;;
70420;SDS011;57848;51.938;15.520;2022-09-01T15:08:06;3.63;;;0.60;;
70420;SDS011;57848;51.938;15.520;2022-09-01T15:10:32;5.78;;;0.70;;
70420;SDS011;57848;51.938;15.520;2022-09-01T15:12:58;5.57;;;0.65;;
70420;SDS011;57848;51.938;15.520;2022-09-01T15:15:25;3.47;;;0.67;;
70420;SDS011;57848;51.938;15.520;2022-09-01T15:17:52;3.50;;;0.60;;
70420;SDS011;57848;51.938;15.520;2022-09-01T15:20:17;5.63;;;1.15;;
70420;SDS011;57848;51.938;15.520;2022-09-01T15:23:02;3.47;;;0.75;;
70420;SDS011;57848;51.938;15.520;2022-09-01T15:25:28;3.53;;;0.60;;
70420;SDS011;57848;51.938;15.520;2022-09-01T15:27:53;4.10;;;0.70;;
70420;SDS011;57848;51.938;15.520;2022-09-01T15:30:19;3.27;;;0.60;;
70420;SDS011;57848;51.938;15.520;2022-09-01T15:32:46;5.15;;;0.70;;
70420;SDS011;57848;51.938;15.520;2022-09-01T15:35:14;4.32;;;0.77;;
70420;SDS011;57848;51.938;15.520;2022-09-01T15:37:40;4.32;;;0.80;;
70420;SDS011;57848;51.938;15.520;2022-09-01T15:40:06;2.80;;;0.60;;
70420;SDS011;57848;51.938;15.520;2022-09-01T15:42:33;3.63;;;0.70;;
70420;SDS011;57848;51.938;15.520;2022-09-01T15:45:00;2.63;;;0.60;;